Time;durP1;ratioP1;P1;durP2;ratioP2;P2;SDS_P1;SDS_P2;PMS_P1;PMS_P2;Temp;Humidity;BMP_temperature;BMP_pressure;BME280_temperature;BME280_humidity;BME280_pressure;Samples;Min_cycle;Max_cycle;Signal;HPM_P1;HPM_P2
2024/01/01 00:00:21;;;;;;;;;;;;;;;7.62;80.55;98876.94;7362051;19;20462;-63
2024/01/01 00:02:46;;;;;;;;;;;;;;;7.62;80.28;98886.50;7364372;19;20340;-64
2024/01/01 00:05:11;;;;;;;;;;;;;;;7.63;80.38;98888.19;7364743;19;19926;-64
2024/01/01 00:07:37;;;;;;;;;;;;;;;7.63;80.11;98894.22;7365880;19;20334;-64
2024/01/01 00:10:02;;;;;;;;;;;;;;;7.62;80.20;98902.09;7334391;19;20868;-64
2024/01/01 00:12:28;;;;;;;;;;;;;;;7.59;80.08;98897.00;7361354;19;19962;-64
2024/01/01 00:14:53;;;;;;;;;;;;;;;7.58;79.74;98900.50;7362656;19;19919;-64
2024/01/01 00:17:18;;;;;;;;;;;;;;;7.56;79.75;98903.19;7361584;19;19962;-64
2024/01/01 00:19:44;;;;;;;;;;;;;;;7.53;79.86;98914.50;7361703;19;19929;-63
2024/01/01 00:22:09;;;;;;;;;;;;;;;7.51;80.00;98916.34;7359978;19;19927;-63
2024/01/01 00:24:34;;;;;;;;;;;;;;;7.48;79.73;98916.44;7357740;19;19923;-63
2024/01/01 00:27:00;;;;;;;;;;;;;;;7.45;79.66;98926.97;7364450;19;20022;-64
2024/01/01 00:29:25;;;;;;;;;;;;;;;7.44;79.69;98920.06;7369922;19;19930;-63
2024/01/01 00:31:51;;;;;;;;;;;;;;;7.42;79.44;98928.81;7352681;19;19918;-63
2024/01/01 00:34:16;;;;;;;;;;;;;;;7.39;79.45;98927.19;7356296;19;19940;-64
2024/01/01 00:36:41;;;;;;;;;;;;;;;7.38;79.65;98935.03;7358601;19;20012;-63
2024/01/01 00:39:06;;;;;;;;;;;;;;;7.36;79.97;98931.66;7362885;19;19956;-62
2024/01/01 00:41:32;;;;;;;;;;;;;;;7.35;80.17;98946.41;7351813;19;19915;-63
2024/01/01 00:43:57;;;;;;;;;;;;;;;7.35;80.05;98956.78;7357721;19;19915;-64
2024/01/01 00:46:22;;;;;;;;;;;;;;;7.37;80.05;98960.16;7360882;19;19923;-63
2024/01/01 00:48:47;;;;;;;;;;;;;;;7.38;80.11;98951.47;7352177;19;19942;-63
2024/01/01 00:51:13;;;;;;;;;;;;;;;7.38;79.88;98954.06;7363997;19;19925;-62
2024/01/01 00:53:38;;;;;;;;;;;;;;;7.37;80.02;98960.16;7357189;19;20030;-63
2024/01/01 00:56:03;;;;;;;;;;;;;;;7.36;79.87;98955.88;7342956;19;20031;-63
2024/01/01 00:58:29;;;;;;;;;;;;;;;7.35;79.69;98961.09;7356085;19;19918;-63
2024/01/01 01:00:56;;;;;;;;;;;;;;;7.33;79.75;98960.31;7363475;19;19926;-65
2024/01/01 01:03:21;;;;;;;;;;;;;;;7.32;79.59;98969.88;7352032;19;19974;-65
2024/01/01 01:05:46;;;;;;;;;;;;;;;7.28;79.45;98957.91;7359832;19;22036;-64
2024/01/01 01:08:11;;;;;;;;;;;;;;;7.27;79.80;98976.97;7360950;19;19939;-65
2024/01/01 01:10:37;;;;;;;;;;;;;;;7.26;80.03;98972.69;7362504;19;19923;-65
2024/01/01 01:13:04;;;;;;;;;;;;;;;7.23;79.97;98972.81;7355645;19;19926;-64
2024/01/01 01:15:31;;;;;;;;;;;;;;;7.22;79.98;98968.53;7358947;19;19918;-64
2024/01/01 01:17:56;;;;;;;;;;;;;;;7.20;79.95;98968.59;7356802;19;21128;-64
2024/01/01 01:20:22;;;;;;;;;;;;;;;7.20;79.96;98983.31;7359829;19;19950;-65
2024/01/01 01:22:47;;;;;;;;;;;;;;;7.18;79.93;98987.69;7363424;19;19930;-64
2024/01/01 01:25:12;;;;;;;;;;;;;;;7.15;79.49;98978.28;7364069;19;19941;-64
2024/01/01 01:27:40;;;;;;;;;;;;;;;7.13;79.84;98987.00;7369772;19;19946;-64
2024/01/01 01:30:05;;;;;;;;;;;;;;;7.11;79.61;98975.84;7362179;19;20643;-63
2024/01/01 01:32:30;;;;;;;;;;;;;;;7.08;79.82;98984.59;7364197;19;19915;-65
2024/01/01 01:34:56;;;;;;;;;;;;;;;7.07;79.61;98989.84;7368171;19;20436;-65
2024/01/01 01:37:21;;;;;;;;;;;;;;;7.05;79.88;98997.69;7370060;19;19910;-64
2024/01/01 01:39:46;;;;;;;;;;;;;;;7.02;79.39;98980.47;7366228;19;19915;-63
2024/01/01 01:42:11;;;;;;;;;;;;;;;7.00;79.51;98982.28;7362578;19;20031;-64
2024/01/01 01:44:37;;;;;;;;;;;;;;;6.99;79.73;98974.53;7364783;19;20015;-63
2024/01/01 01:47:02;;;;;;;;;;;;;;;6.96;79.81;98975.50;7364207;19;19930;-64
2024/01/01 01:49:28;;;;;;;;;;;;;;;6.95;79.79;98984.19;7363290;19;19922;-64
2024/01/01 01:51:53;;;;;;;;;;;;;;;6.92;79.65;98994.66;7363685;19;20648;-64
2024/01/01 01:54:22;;;;;;;;;;;;;;;6.89;79.75;98997.34;7363033;19;19946;-64
2024/01/01 01:56:47;;;;;;;;;;;;;;;6.87;79.59;98991.38;7358823;19;19939;-63
2024/01/01 01:59:12;;;;;;;;;;;;;;;6.84;79.38;98999.25;7364037;19;19928;-63
2024/01/01 02:01:39;;;;;;;;;;;;;;;6.82;79.07;99008.84;7360165;19;19946;-64
2024/01/01 02:04:04;;;;;;;;;;;;;;;6.79;79.29;99008.09;7360394;19;19926;-63
2024/01/01 02:06:29;;;;;;;;;;;;;;;6.76;79.49;99009.91;7360435;19;19919;-64
2024/01/01 02:08:54;;;;;;;;;;;;;;;6.74;79.42;99005.66;7359623;19;20025;-64
2024/01/01 02:11:20;;;;;;;;;;;;;;;6.71;79.38;99011.81;7365428;19;20978;-64
2024/01/01 02:13:45;;;;;;;;;;;;;;;6.69;79.22;99008.44;7361883;19;20276;-63
2024/01/01 02:16:11;;;;;;;;;;;;;;;6.67;79.43;99009.38;7361928;19;19923;-63
2024/01/01 02:18:36;;;;;;;;;;;;;;;6.66;79.28;99002.50;7364212;19;20324;-64
2024/01/01 02:21:02;;;;;;;;;;;;;;;6.64;79.57;99009.47;7361886;19;19934;-65
2024/01/01 02:23:27;;;;;;;;;;;;;;;6.61;79.52;99009.59;7357439;19;19950;-64
2024/01/01 02:25:52;;;;;;;;;;;;;;;6.60;79.49;99023.47;7364643;19;19971;-63
2024/01/01 02:28:19;;;;;;;;;;;;;;;6.58;79.13;99030.44;7364294;19;19938;-64
2024/01/01 02:30:44;;;;;;;;;;;;;;;6.56;79.33;99032.25;7362973;19;19923;-65
2024/01/01 02:33:10;;;;;;;;;;;;;;;6.54;79.15;99039.22;7361529;19;20452;-63
2024/01/01 02:35:35;;;;;;;;;;;;;;;6.53;79.46;99045.31;7359709;19;19918;-63
2024/01/01 02:38:04;;;;;;;;;;;;;;;6.50;79.27;99044.50;7361885;19;19953;-66
2024/01/01 02:40:29;;;;;;;;;;;;;;;6.49;79.05;99054.94;7361068;19;19919;-64
2024/01/01 02:42:54;;;;;;;;;;;;;;;6.47;79.29;99054.97;7360794;19;19915;-64
2024/01/01 02:45:22;;;;;;;;;;;;;;;6.45;79.08;99054.19;7358803;19;19914;-64
2024/01/01 02:47:47;;;;;;;;;;;;;;;6.45;79.41;99048.16;7363940;19;19911;-62
2024/01/01 02:50:15;;;;;;;;;;;;;;;6.42;79.34;99056.88;7362989;19;19926;-64
2024/01/01 02:52:40;;;;;;;;;;;;;;;6.40;79.47;99053.50;7357083;19;19950;-64
2024/01/01 02:55:06;;;;;;;;;;;;;;;6.40;79.35;99074.22;7357125;19;20264;-64
2024/01/01 02:57:31;;;;;;;;;;;;;;;6.39;79.17;99072.53;7363704;19;19965;-63
2024/01/01 02:59:56;;;;;;;;;;;;;;;6.38;79.59;99086.38;7361022;19;20444;-65
2024/01/01 03:02:22;;;;;;;;;;;;;;;6.37;79.53;99095.06;7359531;19;19945;-63
2024/01/01 03:04:47;;;;;;;;;;;;;;;6.36;79.16;99095.97;7369034;19;19910;-64
2024/01/01 03:07:12;;;;;;;;;;;;;;;6.35;79.39;99102.03;7367392;19;19919;-64
2024/01/01 03:09:37;;;;;;;;;;;;;;;6.34;79.09;99102.94;7367324;19;19952;-63
2024/01/01 03:12:03;;;;;;;;;;;;;;;6.33;79.68;99109.00;7370502;19;20716;-63
2024/01/01 03:14:29;;;;;;;;;;;;;;;6.31;79.61;99110.81;7368453;19;19915;-63
2024/01/01 03:16:54;;;;;;;;;;;;;;;6.31;79.61;99110.81;7367458;19;20648;-64
2024/01/01 03:19:20;;;;;;;;;;;;;;;6.31;79.25;99116.00;7370513;19;19923;-64
2024/01/01 03:21:46;;;;;;;;;;;;;;;6.30;79.45;99118.63;7370212;19;19918;-64
2024/01/01 03:24:11;;;;;;;;;;;;;;;6.29;79.30;99120.38;7368727;19;20371;-64
2024/01/01 03:26:36;;;;;;;;;;;;;;;6.28;79.50;99123.84;7367346;19;19930;-63
2024/01/01 03:29:03;;;;;;;;;;;;;;;6.26;79.41;99146.38;7371903;19;19998;-64
2024/01/01 03:31:28;;;;;;;;;;;;;;;6.27;79.59;99135.13;7363920;19;19926;-63
2024/01/01 03:33:53;;;;;;;;;;;;;;;6.25;79.40;99131.75;7369893;19;19918;-63
2024/01/01 03:36:19;;;;;;;;;;;;;;;6.24;79.53;99117.94;7367592;19;19926;-62
2024/01/01 03:38:44;;;;;;;;;;;;;;;6.23;79.39;99141.28;7371963;19;20379;-63
2024/01/01 03:41:09;;;;;;;;;;;;;;;6.21;79.58;99149.13;7367992;19;19927;-64
2024/01/01 03:43:34;;;;;;;;;;;;;;;6.21;79.42;99150.88;7367855;19;19907;-63
2024/01/01 03:46:00;;;;;;;;;;;;;;;6.21;79.74;99156.03;7369599;19;20385;-63
2024/01/01 03:48:25;;;;;;;;;;;;;;;6.21;79.31;99150.88;7370472;19;19956;-63
2024/01/01 03:50:50;;;;;;;;;;;;;;;6.20;79.50;99157.78;7368939;19;19942;-64
2024/01/01 03:53:15;;;;;;;;;;;;;;;6.20;79.78;99159.53;7368295;19;19979;-64
2024/01/01 03:55:41;;;;;;;;;;;;;;;6.19;79.36;99148.31;7370534;19;19978;-64
2024/01/01 03:58:06;;;;;;;;;;;;;;;6.18;79.37;99144.03;7363846;19;19926;-64
2024/01/01 04:00:31;;;;;;;;;;;;;;;6.18;79.51;99145.75;7367861;19;19918;-63
2024/01/01 04:02:56;;;;;;;;;;;;;;;6.17;79.45;99138.88;7363328;19;19934;-64
2024/01/01 04:05:22;;;;;;;;;;;;;;;6.15;79.61;99131.16;7367333;19;20523;-64
2024/01/01 04:07:47;;;;;;;;;;;;;;;6.14;79.70;99141.59;7369323;19;20284;-64
2024/01/01 04:10:12;;;;;;;;;;;;;;;6.13;79.32;99142.44;7366755;19;19952;-64
2024/01/01 04:12:38;;;;;;;;;;;;;;;6.12;79.38;99156.31;7365613;19;19940;-64
2024/01/01 04:15:03;;;;;;;;;;;;;;;6.11;79.37;99159.81;7367111;19;19929;-63
2024/01/01 04:17:29;;;;;;;;;;;;;;;6.09;79.25;99166.78;7366269;19;20304;-64
2024/01/01 04:19:54;;;;;;;;;;;;;;;6.08;79.32;99172.84;7340608;19;19923;-64
2024/01/01 04:22:19;;;;;;;;;;;;;;;6.09;79.26;99177.16;7367987;19;19922;-63
2024/01/01 04:24:45;;;;;;;;;;;;;;;6.07;79.41;99179.75;7371955;19;19919;-63
2024/01/01 04:27:10;;;;;;;;;;;;;;;6.06;79.13;99182.41;7370454;19;20291;-64
2024/01/01 04:29:36;;;;;;;;;;;;;;;6.05;79.73;99175.53;7365831;19;19914;-64
2024/01/01 04:32:01;;;;;;;;;;;;;;;6.05;79.54;99180.72;7364175;19;19972;-64
2024/01/01 04:34:26;;;;;;;;;;;;;;;6.04;79.65;99179.03;7368636;19;20388;-64
2024/01/01 04:36:52;;;;;;;;;;;;;;;6.02;79.30;99178.19;7366601;19;19923;-65
2024/01/01 04:39:17;;;;;;;;;;;;;;;6.01;79.07;99173.91;7369823;19;20409;-62
2024/01/01 04:41:42;;;;;;;;;;;;;;;6.00;79.32;99172.22;7372068;19;20382;-63
2024/01/01 04:44:07;;;;;;;;;;;;;;;5.98;79.27;99178.31;7365258;19;20657;-64
2024/01/01 04:46:33;;;;;;;;;;;;;;;5.96;79.08;99182.66;7365872;19;19931;-63
2024/01/01 04:48:58;;;;;;;;;;;;;;;5.95;79.29;99178.38;7365098;19;19923;-63
2024/01/01 04:51:23;;;;;;;;;;;;;;;5.94;79.43;99194.81;7360651;19;19923;-64
2024/01/01 04:53:48;;;;;;;;;;;;;;;5.94;79.47;99194.81;7368408;19;19915;-64
2024/01/01 04:56:14;;;;;;;;;;;;;;;5.93;79.61;99194.84;7364937;19;19932;-64
2024/01/01 04:58:39;;;;;;;;;;;;;;;5.91;79.09;99213.03;7373748;19;20021;-65
2024/01/01 05:01:05;;;;;;;;;;;;;;;5.88;79.18;99199.28;7366911;19;19926;-64
2024/01/01 05:03:31;;;;;;;;;;;;;;;5.87;78.99;99207.94;7368983;19;19947;-64
2024/01/01 05:05:57;;;;;;;;;;;;;;;5.86;79.07;99207.09;7365199;19;19911;-63
2024/01/01 05:08:22;;;;;;;;;;;;;;;5.83;78.97;99207.19;7367765;19;20018;-64
2024/01/01 05:10:48;;;;;;;;;;;;;;;5.82;79.33;99205.47;7368170;19;20328;-63
2024/01/01 05:13:14;;;;;;;;;;;;;;;5.80;79.28;99207.28;7366263;19;19931;-64
2024/01/01 05:15:41;;;;;;;;;;;;;;;5.79;79.12;99208.16;7376462;19;20332;-63
2024/01/01 05:18:06;;;;;;;;;;;;;;;5.76;78.87;99205.66;7372210;19;20907;-63
2024/01/01 05:20:32;;;;;;;;;;;;;;;5.74;78.94;99212.63;7366695;19;19919;-64
2024/01/01 05:22:57;;;;;;;;;;;;;;;5.73;79.17;99210.94;7366015;19;19927;-63
2024/01/01 05:25:22;;;;;;;;;;;;;;;5.72;79.23;99219.56;7365109;19;19923;-64
2024/01/01 05:27:48;;;;;;;;;;;;;;;5.70;79.10;99216.19;7365734;19;19922;-64
2024/01/01 05:30:13;;;;;;;;;;;;;;;5.67;78.88;99211.06;7365237;19;19922;-64
2024/01/01 05:32:39;;;;;;;;;;;;;;;5.66;78.76;99220.59;7363836;19;19957;-63
2024/01/01 05:35:05;;;;;;;;;;;;;;;5.64;78.90;99221.53;7363260;19;20346;-63
2024/01/01 05:37:30;;;;;;;;;;;;;;;5.63;78.86;99230.19;7365614;19;20428;-63
2024/01/01 05:39:55;;;;;;;;;;;;;;;5.61;78.88;99217.25;7358575;19;19907;-64
2024/01/01 05:42:20;;;;;;;;;;;;;;;5.60;78.78;99230.25;7366756;19;20157;-64
2024/01/01 05:44:46;;;;;;;;;;;;;;;5.58;78.85;99224.28;7364797;19;20573;-62
2024/01/01 05:47:11;;;;;;;;;;;;;;;5.57;78.89;99225.16;7372068;19;19915;-63
2024/01/01 05:49:36;;;;;;;;;;;;;;;5.55;79.06;99227.78;7369453;19;19986;-64
2024/01/01 05:52:02;;;;;;;;;;;;;;;5.54;79.23;99225.25;7366272;19;19931;-64
2024/01/01 05:54:27;;;;;;;;;;;;;;;5.53;78.82;99218.38;7364762;19;20709;-62
2024/01/01 05:56:53;;;;;;;;;;;;;;;5.52;79.22;99224.41;7364210;19;20339;-63
2024/01/01 05:59:18;;;;;;;;;;;;;;;5.51;78.91;99230.50;7366352;19;19990;-64
2024/01/01 06:01:43;;;;;;;;;;;;;;;5.50;79.22;99224.47;7365735;19;19915;-63
2024/01/01 06:04:09;;;;;;;;;;;;;;;5.48;79.37;99221.09;7366208;19;19922;-64
2024/01/01 06:06:35;;;;;;;;;;;;;;;5.49;79.02;99232.28;7362568;19;20010;-64
2024/01/01 06:09:01;;;;;;;;;;;;;;;5.47;79.38;99228.00;7360308;19;19941;-63
2024/01/01 06:11:26;;;;;;;;;;;;;;;5.46;79.36;99228.88;7364848;19;19930;-64
2024/01/01 06:13:52;;;;;;;;;;;;;;;5.45;79.32;99234.94;7372618;19;20357;-64
2024/01/01 06:16:17;;;;;;;;;;;;;;;5.45;79.29;99222.00;7360698;19;19922;-63
2024/01/01 06:18:43;;;;;;;;;;;;;;;5.45;79.27;99247.88;7368642;19;19923;-64
2024/01/01 06:21:08;;;;;;;;;;;;;;;5.43;79.01;99249.66;7361820;19;20325;-64
2024/01/01 06:23:33;;;;;;;;;;;;;;;5.44;79.20;99250.53;7371100;19;20458;-64
2024/01/01 06:25:58;;;;;;;;;;;;;;;5.43;79.35;99254.84;7362549;19;19931;-64
2024/01/01 06:28:26;;;;;;;;;;;;;;;5.42;79.38;99263.50;7361585;19;19934;-64
2024/01/01 06:30:51;;;;;;;;;;;;;;;5.41;79.29;99269.56;7360755;19;19918;-63
2024/01/01 06:33:16;;;;;;;;;;;;;;;5.43;79.46;99265.22;7366020;19;19919;-63
2024/01/01 06:35:42;;;;;;;;;;;;;;;5.43;79.07;99264.34;7362613;19;19929;-62
2024/01/01 06:38:07;;;;;;;;;;;;;;;5.43;79.16;99264.34;7364295;19;19907;-63
2024/01/01 06:40:32;;;;;;;;;;;;;;;5.37;79.00;99257.59;7370995;19;19933;-64
2024/01/01 06:42:58;;;;;;;;;;;;;;;5.43;79.35;99265.22;7374295;19;19943;-64
2024/01/01 06:45:23;;;;;;;;;;;;;;;5.44;79.31;99279.00;7367802;19;20343;-64
2024/01/01 06:47:48;;;;;;;;;;;;;;;5.43;79.50;99280.75;7375766;19;19930;-64
2024/01/01 06:50:14;;;;;;;;;;;;;;;5.44;79.19;99277.25;7375270;19;20699;-64
2024/01/01 06:52:39;;;;;;;;;;;;;;;5.45;79.27;99281.53;7379168;19;20535;-64
2024/01/01 06:55:05;;;;;;;;;;;;;;;5.45;79.23;99270.34;7369789;19;19927;-63
2024/01/01 06:57:30;;;;;;;;;;;;;;;5.45;79.33;99263.41;7365287;19;19934;-64
2024/01/01 06:59:56;;;;;;;;;;;;;;;5.44;79.15;99272.06;7370528;19;19943;-64
2024/01/01 07:02:22;;;;;;;;;;;;;;;5.44;79.37;99272.06;7375562;19;20362;-64
2024/01/01 07:04:47;;;;;;;;;;;;;;;5.43;79.16;99267.78;7371460;19;20032;-62
2024/01/01 07:07:14;;;;;;;;;;;;;;;5.44;79.10;99269.50;7365838;19;20010;-63
2024/01/01 07:09:39;;;;;;;;;;;;;;;5.43;79.44;99270.38;7371689;19;19999;-64
2024/01/01 07:12:23;;;;;;;;;;;;;;;5.42;79.06;99258.34;7366190;19;20339;-64
2024/01/01 07:14:48;;;;;;;;;;;;;;;5.42;79.34;99268.69;7371471;19;20006;-64
2024/01/01 07:17:14;;;;;;;;;;;;;;;5.41;79.37;99266.13;7370398;19;20567;-63
2024/01/01 07:19:39;;;;;;;;;;;;;;;5.39;79.36;99281.69;7371903;19;19937;-64
2024/01/01 07:22:04;;;;;;;;;;;;;;;5.38;79.00;99272.25;7366215;19;19925;-65
2024/01/01 07:24:30;;;;;;;;;;;;;;;5.38;79.30;99277.41;7372602;19;19923;-64
2024/01/01 07:26:55;;;;;;;;;;;;;;;5.35;79.37;99282.66;7376164;19;20000;-63
2024/01/01 07:29:21;;;;;;;;;;;;;;;5.36;79.21;99283.50;7368470;19;20986;-63
2024/01/01 07:31:46;;;;;;;;;;;;;;;5.33;79.00;99284.44;7371237;19;19915;-64
2024/01/01 07:34:12;;;;;;;;;;;;;;;5.33;79.13;99287.03;7370662;19;19922;-65
2024/01/01 07:36:37;;;;;;;;;;;;;;;5.32;78.93;99277.56;7367462;19;19936;-63
2024/01/01 07:39:02;;;;;;;;;;;;;;;5.31;78.85;99281.03;7365315;19;19942;-64
2024/01/01 07:41:28;;;;;;;;;;;;;;;5.25;79.11;99276.00;7369062;19;19914;-65
2024/01/01 07:43:53;;;;;;;;;;;;;;;5.29;78.96;99287.97;7370553;19;19922;-64
2024/01/01 07:46:19;;;;;;;;;;;;;;;5.29;78.85;99287.97;7361241;19;19926;-64
2024/01/01 07:48:44;;;;;;;;;;;;;;;5.27;79.26;99289.78;7372371;19;19931;-65
2024/01/01 07:51:09;;;;;;;;;;;;;;;5.26;79.26;99293.22;7366753;19;20380;-63
2024/01/01 07:53:34;;;;;;;;;;;;;;;5.25;79.26;99291.53;7371699;19;20305;-63
2024/01/01 07:56:01;;;;;;;;;;;;;;;5.24;78.94;99287.25;7361856;19;19915;-64
2024/01/01 07:58:26;;;;;;;;;;;;;;;5.23;78.77;99290.72;7368839;19;19927;-63
2024/01/01 08:00:52;;;;;;;;;;;;;;;5.21;79.07;99289.88;7367788;19;19915;-64
2024/01/01 08:03:19;;;;;;;;;;;;;;;5.20;78.96;99288.19;7371794;19;20782;-63
2024/01/01 08:05:44;;;;;;;;;;;;;;;5.13;79.07;99284.91;7362724;19;19922;-63
2024/01/01 08:08:10;;;;;;;;;;;;;;;5.17;78.77;99288.25;7367211;19;19960;-63
2024/01/01 08:10:35;;;;;;;;;;;;;;;5.16;78.80;99281.38;7371243;19;19925;-64
2024/01/01 08:13:00;;;;;;;;;;;;;;;5.14;79.31;99285.75;7377633;19;19923;-64
2024/01/01 08:15:26;;;;;;;;;;;;;;;5.13;78.79;99281.47;7371344;19;19918;-63
2024/01/01 08:17:51;;;;;;;;;;;;;;;5.12;78.87;99285.81;7368546;19;19929;-64
2024/01/01 08:20:16;;;;;;;;;;;;;;;5.11;78.99;99278.06;7367120;19;19911;-63
2024/01/01 08:22:41;;;;;;;;;;;;;;;5.11;78.81;99293.56;7369452;19;19922;-64
2024/01/01 08:25:07;;;;;;;;;;;;;;;5.09;78.79;99280.69;7360738;19;19922;-63
2024/01/01 08:27:32;;;;;;;;;;;;;;;5.09;78.93;99277.25;7363801;19;19925;-64
2024/01/01 08:29:57;;;;;;;;;;;;;;;5.08;78.99;99270.38;7369600;19;19918;-63
2024/01/01 08:32:23;;;;;;;;;;;;;;;5.07;78.91;99271.25;7368936;19;19930;-65
2024/01/01 08:34:48;;;;;;;;;;;;;;;5.08;78.90;99283.31;7353955;19;19914;-63
2024/01/01 08:37:13;;;;;;;;;;;;;;;5.06;78.78;99285.91;7360614;19;19927;-63
2024/01/01 08:39:38;;;;;;;;;;;;;;;5.06;79.09;99290.25;7366557;19;20348;-64
2024/01/01 08:42:04;;;;;;;;;;;;;;;5.04;79.04;99272.19;7364269;19;19923;-63
2024/01/01 08:44:29;;;;;;;;;;;;;;;5.04;78.94;99292.03;7358840;19;19907;-64
2024/01/01 08:46:54;;;;;;;;;;;;;;;5.03;79.14;99291.19;7358892;19;19911;-64
2024/01/01 08:49:19;;;;;;;;;;;;;;;5.02;79.08;99293.78;7369399;19;19923;-63
2024/01/01 08:51:45;;;;;;;;;;;;;;;5.01;78.98;99295.53;7359322;19;20258;-64
2024/01/01 08:54:12;;;;;;;;;;;;;;;5.02;78.79;99293.78;7368256;19;19982;-63
2024/01/01 08:56:37;;;;;;;;;;;;;;;5.01;78.87;99292.09;7361646;19;20273;-64
2024/01/01 08:59:03;;;;;;;;;;;;;;;5.02;78.92;99296.38;7363021;19;19923;-62
2024/01/01 09:01:28;;;;;;;;;;;;;;;5.01;79.19;99297.25;7362894;19;19919;-63
2024/01/01 09:03:56;;;;;;;;;;;;;;;5.01;79.40;99298.09;7366865;19;20355;-64
2024/01/01 09:06:21;;;;;;;;;;;;;;;5.02;79.52;99304.13;7364594;19;19919;-63
2024/01/01 09:08:46;;;;;;;;;;;;;;;5.03;79.41;99290.34;7366093;19;19922;-63
2024/01/01 09:11:12;;;;;;;;;;;;;;;5.04;79.68;99302.38;7367127;19;20297;-64
2024/01/01 09:13:37;;;;;;;;;;;;;;;5.05;79.39;99299.75;7350259;19;19930;-63
2024/01/01 09:16:02;;;;;;;;;;;;;;;5.08;79.72;99304.00;7354417;19;19927;-64
2024/01/01 09:18:28;;;;;;;;;;;;;;;5.10;79.81;99310.84;7368027;19;20525;-63
2024/01/01 09:20:53;;;;;;;;;;;;;;;5.13;79.79;99312.53;7359829;19;19927;-63
2024/01/01 09:23:18;;;;;;;;;;;;;;;5.16;79.53;99307.25;7366152;19;20367;-64
2024/01/01 09:25:43;;;;;;;;;;;;;;;5.18;79.82;99305.50;7356365;19;19941;-64
2024/01/01 09:28:09;;;;;;;;;;;;;;;5.21;79.72;99313.19;7362645;19;19911;-64
2024/01/01 09:30:34;;;;;;;;;;;;;;;5.24;79.76;99310.53;7363955;19;20657;-64
2024/01/01 09:32:59;;;;;;;;;;;;;;;5.27;80.11;99315.66;7365937;19;20000;-62
2024/01/01 09:35:25;;;;;;;;;;;;;;;5.31;80.01;99314.66;7353152;19;19946;-64
2024/01/01 09:37:52;;;;;;;;;;;;;;;5.35;79.80;99311.13;7371073;19;20362;-64
2024/01/01 09:40:18;;;;;;;;;;;;;;;5.39;80.44;99317.94;7361139;19;19923;-63
2024/01/01 09:42:50;;;;;;;;;;;;;;;5.43;80.32;99316.13;7364177;19;19935;-63
2024/01/01 09:45:15;;;;;;;;;;;;;;;5.49;80.25;99312.53;7358748;19;19930;-63
2024/01/01 09:47:40;;;;;;;;;;;;;;;5.54;79.95;99310.69;7364275;19;20711;-63
2024/01/01 09:50:06;;;;;;;;;;;;;;;5.57;80.41;99303.69;7363699;19;19926;-64
2024/01/01 09:52:31;;;;;;;;;;;;;;;5.62;80.03;99295.78;7367983;19;20446;-63
2024/01/01 09:54:57;;;;;;;;;;;;;;;5.68;80.31;99295.66;7355161;19;20358;-63
2024/01/01 09:57:23;;;;;;;;;;;;;;;5.72;80.21;99300.69;7365635;19;20360;-64
2024/01/01 09:59:48;;;;;;;;;;;;;;;5.76;80.52;99298.03;7358309;19;19921;-65
2024/01/01 10:02:13;;;;;;;;;;;;;;;5.82;80.05;99308.25;7365841;19;20734;-63
2024/01/01 10:04:39;;;;;;;;;;;;;;;5.85;80.11;99298.66;7364867;19;19919;-64
2024/01/01 10:07:04;;;;;;;;;;;;;;;5.90;80.28;99307.16;7364363;19;19935;-64
2024/01/01 10:09:30;;;;;;;;;;;;;;;5.93;80.26;99308.84;7332662;19;19915;-63
2024/01/01 10:12:13;;;;;;;;;;;;;;;5.92;80.21;99289.00;7366706;19;19926;-64
2024/01/01 10:14:46;;;;;;;;;;;;;;;6.02;80.05;99300.00;7363406;19;19922;-64
2024/01/01 10:17:12;;;;;;;;;;;;;;;6.05;80.18;99298.19;7368406;19;19922;-64
2024/01/01 10:19:47;;;;;;;;;;;;;;;6.07;79.82;99290.34;7371841;19;20039;-63
2024/01/01 10:22:12;;;;;;;;;;;;;;;6.13;80.02;99297.94;7367382;19;19923;-63
2024/01/01 10:24:37;;;;;;;;;;;;;;;6.14;80.49;99295.34;7358938;19;19919;-63
2024/01/01 10:27:03;;;;;;;;;;;;;;;6.18;80.35;99296.09;7360334;19;19937;-63
2024/01/01 10:29:28;;;;;;;;;;;;;;;6.21;80.33;99299.44;7365615;19;19914;-63
2024/01/01 10:31:54;;;;;;;;;;;;;;;6.26;80.20;99286.38;7365919;19;20053;-63
2024/01/01 10:34:19;;;;;;;;;;;;;;;6.29;80.40;99294.06;7356709;19;19915;-63
2024/01/01 10:36:44;;;;;;;;;;;;;;;6.33;80.35;99280.09;7364732;19;19922;-64
2024/01/01 10:39:10;;;;;;;;;;;;;;;6.37;80.42;99283.47;7359595;19;20603;-64
2024/01/01 10:41:36;;;;;;;;;;;;;;;6.40;80.40;99284.25;7364201;19;19927;-64
2024/01/01 10:44:08;;;;;;;;;;;;;;;6.43;80.62;99281.53;7364657;19;20713;-63
2024/01/01 10:46:39;;;;;;;;;;;;;;;6.48;80.32;99278.81;7361273;19;19994;-63
2024/01/01 10:49:05;;;;;;;;;;;;;;;6.49;80.16;99278.81;7357573;19;19946;-63
2024/01/01 10:51:51;;;;;;;;;;;;;;;6.53;80.31;99271.75;7366694;19;19915;-64
2024/01/01 10:54:39;;;;;;;;;;;;;;;6.57;80.22;99267.34;7356470;19;20344;-62
2024/01/01 10:57:23;;;;;;;;;;;;;;;6.61;79.90;99263.78;7363343;19;19931;-63
2024/01/01 10:59:57;;;;;;;;;;;;;;;6.62;80.34;99255.94;7363770;19;19929;-64
2024/01/01 11:02:23;;;;;;;;;;;;;;;6.65;79.95;99255.00;7360426;19;19918;-64
2024/01/01 11:05:04;;;;;;;;;;;;;;;6.67;80.39;99248.88;7367662;19;19943;-63
2024/01/01 11:07:48;;;;;;;;;;;;;;;6.68;80.09;99234.16;7371243;19;19930;-63
2024/01/01 11:10:32;;;;;;;;;;;;;;;6.72;80.46;99246.97;7366183;19;20335;-64
2024/01/01 11:12:57;;;;;;;;;;;;;;;6.74;80.42;99239.13;7364418;19;20295;-63
2024/01/01 11:15:39;;;;;;;;;;;;;;;6.77;80.00;99228.69;7362734;19;19926;-65
2024/01/01 11:18:12;;;;;;;;;;;;;;;6.79;80.43;99232.06;7363572;19;19930;-64
2024/01/01 11:20:49;;;;;;;;;;;;;;;6.82;80.04;99225.94;7356984;19;19943;-65
2024/01/01 11:23:36;;;;;;;;;;;;;;;6.84;80.10;99214.59;7364988;19;20315;-64
2024/01/01 11:26:01;;;;;;;;;;;;;;;6.87;80.17;99208.50;7366032;19;19915;-63
2024/01/01 11:28:39;;;;;;;;;;;;;;;6.89;80.30;99210.13;7372218;19;20631;-64
2024/01/01 11:31:07;;;;;;;;;;;;;;;6.91;80.24;99213.53;7368581;19;19922;-63
2024/01/01 11:33:32;;;;;;;;;;;;;;;6.94;80.05;99200.44;7364373;19;20037;-63
2024/01/01 11:36:09;;;;;;;;;;;;;;;6.98;80.32;99202.06;7368599;19;20530;-64
2024/01/01 11:38:35;;;;;;;;;;;;;;;7.02;80.14;99197.63;7356422;19;19931;-64
2024/01/01 11:41:00;;;;;;;;;;;;;;;7.06;80.48;99188.00;7374564;19;20560;-64
2024/01/01 11:43:25;;;;;;;;;;;;;;;7.09;80.55;99167.13;7372768;19;20403;-65
2024/01/01 11:45:54;;;;;;;;;;;;;;;7.13;80.06;99168.72;7364700;19;20312;-64
2024/01/01 11:48:19;;;;;;;;;;;;;;;7.16;80.44;99163.44;7369712;19;19954;-63
2024/01/01 11:50:46;;;;;;;;;;;;;;;7.17;80.40;99158.19;7369387;19;19967;-64
2024/01/01 11:53:14;;;;;;;;;;;;;;;7.23;80.24;99149.34;7376156;19;19924;-64
2024/01/01 11:55:39;;;;;;;;;;;;;;;7.23;80.34;99133.75;7365702;19;19919;-64
2024/01/01 11:58:04;;;;;;;;;;;;;;;7.27;80.00;99122.38;7364921;19;19922;-63
2024/01/01 12:00:30;;;;;;;;;;;;;;;7.30;80.02;99114.50;7371862;19;19919;-64
2024/01/01 12:02:56;;;;;;;;;;;;;;;7.34;80.39;99113.47;7369295;19;19915;-64
2024/01/01 12:05:21;;;;;;;;;;;;;;;7.37;79.83;99097.78;7365867;19;19931;-64
2024/01/01 12:07:47;;;;;;;;;;;;;;;7.40;80.08;99083.81;7365286;19;19911;-64
2024/01/01 12:10:15;;;;;;;;;;;;;;;7.44;79.89;99082.81;7367945;19;19926;-63
2024/01/01 12:12:42;;;;;;;;;;;;;;;7.47;79.91;99075.78;7369627;19;19938;-64
2024/01/01 12:15:08;;;;;;;;;;;;;;;7.51;80.17;99071.31;7368889;19;20452;-63
2024/01/01 12:17:37;;;;;;;;;;;;;;;7.56;79.93;99068.56;7368398;19;19934;-63
2024/01/01 12:20:02;;;;;;;;;;;;;;;7.59;80.01;99064.09;7371233;19;19918;-64
2024/01/01 12:22:27;;;;;;;;;;;;;;;7.63;79.94;99049.25;7367220;19;19986;-64
2024/01/01 12:24:59;;;;;;;;;;;;;;;7.66;80.50;99046.53;7369597;19;19918;-63
2024/01/01 12:27:24;;;;;;;;;;;;;;;7.70;80.50;99035.09;7362514;19;21206;-63
2024/01/01 12:29:56;;;;;;;;;;;;;;;7.74;80.68;99036.69;7367609;19;19921;-63
2024/01/01 12:32:22;;;;;;;;;;;;;;;7.78;80.70;99035.69;7315387;19;19918;-63
2024/01/01 12:34:47;;;;;;;;;;;;;;;7.80;80.28;99024.31;7371155;19;20440;-63
2024/01/01 12:37:12;;;;;;;;;;;;;;;7.83;80.46;99019.91;7361377;19;19907;-64
2024/01/01 12:39:37;;;;;;;;;;;;;;;7.82;80.22;99021.66;7362984;19;19929;-64
2024/01/01 12:42:03;;;;;;;;;;;;;;;7.81;80.41;99014.78;7364452;19;19998;-64
2024/01/01 12:44:28;;;;;;;;;;;;;;;7.79;80.03;99016.56;7367307;19;19922;-64
2024/01/01 12:46:53;;;;;;;;;;;;;;;7.75;80.16;99008.03;7360345;19;19923;-66
2024/01/01 12:49:19;;;;;;;;;;;;;;;7.73;80.22;99009.03;7362452;19;20378;-64
2024/01/01 12:51:46;;;;;;;;;;;;;;;7.71;80.24;99003.06;7366729;19;19982;-65